Gleneden Beach, OR (97388)

10:17 AM PST on February 11, 2016 (GMT -0800)
Cavalier Condominium #39 | | Change Station
CLOSE
Current Station
Personal Weather Station
Location: Gleneden Beach, OR
Elevation: 35 ft
Nearby Weather Stations

Elev 35 ft 44.86 °N, 124.04 °W | Updated 20 seconds ago

Rain
Rain
54.5 °F
Feels Like 54.5 °F
N
-
Wind Variable Wind from North

Today
High -- | Low -- °F
--% Chance of Precip.
Yesterday
High -- | Low -- °F
Precip. -- in
Pressure 30.14 in
Visibility 10.0 miles
Clouds Scattered Clouds 1000 ft
Mostly Cloudy 1500 ft
Mostly Cloudy 2000 ft
Dew Point 45 °F
Humidity 96%
Rainfall 0.09 in
Snow Depth Not available.
7:23 AM 5:38 PM
Waxing Crescent, 13% visible
METAR KONP 111755Z AUTO 09009KT 10SM -RA SCT010 BKN015 BKN020 12/11 A3014 RMK AO2 P0004
Pressure 30.14 in
Visibility 10.0 miles
Clouds Scattered Clouds 1000 ft
Mostly Cloudy 1500 ft
Mostly Cloudy 2000 ft
Dew Point 45 °F
Humidity 96%
Rainfall 0.09 in
Snow Depth Not available.
7:23 AM 5:38 PM
Waxing Crescent, 13% visible
METAR KONP 111755Z AUTO 09009KT 10SM -RA SCT010 BKN015 BKN020 12/11 A3014 RMK AO2 P0004

10-Day Weather Forecast

Almanac

Astronomy

Feb. 11, 2016 Rise Set
Actual Time
Civil Twilight
Nautical Twilight
Astronomical Twilight
Moon
Length of Visible Light
Length of Day
Tomorrow will be .
, % of the Moon is Illuminated

Today's Extremes

State Highs State Lows

Community

WunderPhotos

Upload Photos

1,892,122 photos uploaded!

WunderBlog® & News

Nearby

Air Quality

  Air Quality AQ Index Pollutant
Not available.

Snow Depth

Station Depth Elevation

Earthquake Activity

City Distance Mag. Time & Date
Minimum magnitude displayed is 2.5.

Coastal Water Temperatures

Place Temperature

Stations

Nearby Weather Stations

Station Location Temp. Windchill Dew Point Humidity Wind Precip. Elev Updated Type
                   

Watches & Warnings

There are currently no watches in effect.